Time;durP1;ratioP1;P1;durP2;ratioP2;P2;SDS_P1;SDS_P2;PMS_P1;PMS_P2;Temp;Humidity;BMP_temperature;BMP_pressure;BME280_temperature;BME280_humidity;BME280_pressure;Samples;Min_cycle;Max_cycle;Signal;HPM_P1;HPM_P2
2022/05/16 00:02:10;;;;;;;3.20;2.67;;;18.80;51.90;;;;;;5082469;28;20439;-45
2022/05/16 00:04:38;;;;;;;3.13;2.60;;;18.70;51.50;;;;;;5100776;28;20166;-45
2022/05/16 00:07:03;;;;;;;2.60;2.40;;;18.70;51.40;;;;;;5100318;28;20759;-44
2022/05/16 00:09:29;;;;;;;3.57;2.50;;;18.70;51.60;;;;;;5100702;28;20413;-45
2022/05/16 00:11:55;;;;;;;3.40;2.80;;;18.70;51.70;;;;;;5100667;28;20180;-45
2022/05/16 00:14:33;;;;;;;3.30;2.73;;;18.70;51.80;;;;;;5082784;28;20649;-44
2022/05/16 00:16:59;;;;;;;3.90;2.97;;;18.70;52.20;;;;;;5099616;28;20631;-45
2022/05/16 00:19:24;;;;;;;3.00;2.70;;;18.60;52.00;;;;;;5098826;28;20555;-45
2022/05/16 00:21:50;;;;;;;2.57;2.30;;;18.60;52.10;;;;;;5098663;28;20443;-45
2022/05/16 00:24:18;;;;;;;3.73;3.20;;;18.50;51.90;;;;;;5099022;28;20587;-45
2022/05/16 00:26:44;;;;;;;2.97;2.67;;;18.40;52.00;;;;;;5098384;28;20187;-45
2022/05/16 00:29:10;;;;;;;2.77;2.57;;;18.50;52.20;;;;;;5097897;28;20862;-45
2022/05/16 00:31:35;;;;;;;3.47;2.70;;;18.40;52.50;;;;;;5098724;28;20180;-45
2022/05/16 00:34:01;;;;;;;2.70;2.33;;;18.40;52.70;;;;;;5098432;28;20474;-45
2022/05/16 00:36:30;;;;;;;3.33;3.03;;;18.30;52.90;;;;;;5099248;28;20181;-45
2022/05/16 00:38:55;;;;;;;2.90;2.40;;;18.40;52.80;;;;;;5099159;28;20205;-45
2022/05/16 00:41:21;;;;;;;3.80;2.67;;;18.40;52.50;;;;;;5100217;28;20427;-45
2022/05/16 00:43:58;;;;;;;4.63;2.83;;;18.40;52.20;;;;;;5100098;28;20173;-43
2022/05/16 00:46:29;;;;;;;2.70;2.50;;;18.50;51.90;;;;;;5099856;28;20264;-43
2022/05/16 00:48:55;;;;;;;3.37;2.93;;;18.50;51.90;;;;;;5099248;28;20456;-43
2022/05/16 00:51:34;;;;;;;3.47;2.63;;;18.50;51.70;;;;;;5081397;28;20490;-41
2022/05/16 00:54:20;;;;;;;4.43;2.80;;;18.50;51.80;;;;;;5081286;28;20521;-44
2022/05/16 00:57:14;;;;;;;2.23;2.03;;;18.50;51.90;;;;;;5063673;28;20426;-44
2022/05/16 01:00:02;;;;;;;4.63;2.70;;;18.50;52.20;;;;;;5080530;28;20485;-44
2022/05/16 01:05:13;;;;;;;4.00;2.83;;;18.50;52.40;;;;;;5084156;28;20400;-44
2022/05/16 01:07:43;;;;;;;3.33;2.43;;;18.50;52.20;;;;;;5098505;28;20712;-44
2022/05/16 01:10:12;;;;;;;3.07;2.50;;;18.50;52.10;;;;;;5099427;28;20566;-44
2022/05/16 01:12:40;;;;;;;3.23;2.93;;;18.50;52.00;;;;;;5099183;28;20425;-44
2022/05/16 01:15:12;;;;;;;2.73;2.53;;;18.50;52.20;;;;;;5081516;28;20410;-44
2022/05/16 01:17:38;;;;;;;2.93;2.73;;;18.50;52.70;;;;;;5081205;28;20434;-44
2022/05/16 01:20:11;;;;;;;2.40;2.10;;;18.50;53.10;;;;;;5099093;28;20573;-44
2022/05/16 01:22:48;;;;;;;4.53;3.13;;;18.40;53.50;;;;;;5099199;28;20415;-44
2022/05/16 01:25:23;;;;;;;3.53;2.70;;;18.30;53.90;;;;;;5098888;28;20852;-44
2022/05/16 01:28:04;;;;;;;2.83;2.40;;;18.30;54.30;;;;;;5099066;28;20439;-44
2022/05/16 01:30:48;;;;;;;4.13;2.90;;;18.20;54.50;;;;;;5099090;28;20712;-44
2022/05/16 01:33:15;;;;;;;3.93;3.53;;;18.20;54.80;;;;;;5098135;28;20730;-44
2022/05/16 01:35:41;;;;;;;3.40;2.43;;;18.10;55.00;;;;;;5099058;28;20465;-44
2022/05/16 01:38:19;;;;;;;3.03;2.60;;;18.10;55.20;;;;;;5098428;28;20423;-44
2022/05/16 01:41:34;;;;;;;2.90;2.70;;;18.10;55.50;;;;;;5097439;28;20894;-43
2022/05/16 01:44:01;;;;;;;3.17;2.60;;;18.10;55.70;;;;;;5097168;28;20559;-44
2022/05/16 01:46:33;;;;;;;4.53;3.00;;;18.10;55.90;;;;;;5096954;28;20410;-44
2022/05/16 01:48:59;;;;;;;4.30;2.57;;;18.00;55.90;;;;;;5096085;28;20509;-43
2022/05/16 01:51:25;;;;;;;2.50;2.30;;;18.00;55.70;;;;;;5096158;28;20817;-43
2022/05/16 01:53:52;;;;;;;2.83;2.63;;;18.00;55.60;;;;;;5095594;28;20185;-44
2022/05/16 01:56:17;;;;;;;4.17;3.77;;;18.00;55.40;;;;;;5096155;28;20209;-44
2022/05/16 01:58:44;;;;;;;3.50;2.70;;;18.00;55.50;;;;;;5096413;28;20413;-44
2022/05/16 02:01:10;;;;;;;3.03;2.73;;;17.90;55.70;;;;;;5096858;28;20198;-44
2022/05/16 02:03:40;;;;;;;3.23;2.93;;;17.90;55.80;;;;;;5096288;28;20700;-44
2022/05/16 02:06:06;;;;;;;3.40;3.10;;;17.90;56.00;;;;;;5097906;28;20430;-44
2022/05/16 02:08:32;;;;;;;3.30;3.03;;;18.00;54.90;;;;;;5080420;28;20511;-44
2022/05/16 02:10:58;;;;;;;5.20;3.07;;;18.00;54.40;;;;;;5097800;28;20212;-44
2022/05/16 02:13:23;;;;;;;3.53;3.23;;;17.90;54.40;;;;;;5079625;28;20190;-43
2022/05/16 02:15:49;;;;;;;3.13;2.80;;;17.80;54.70;;;;;;5097478;28;20188;-44
2022/05/16 02:18:15;;;;;;;3.37;3.03;;;17.80;54.80;;;;;;5098017;28;20172;-44
2022/05/16 02:20:41;;;;;;;3.27;2.97;;;17.80;54.90;;;;;;5080495;28;20217;-44
2022/05/16 02:25:53;;;;;;;3.20;2.90;;;17.60;54.90;;;;;;5097697;28;20421;-44
2022/05/16 02:28:20;;;;;;;3.77;3.13;;;17.60;55.10;;;;;;5096943;28;20416;-44
2022/05/16 02:30:46;;;;;;;3.60;2.90;;;17.60;55.10;;;;;;5097361;28;20493;-43
2022/05/16 02:33:14;;;;;;;5.33;2.90;;;17.60;55.00;;;;;;5096497;28;20512;-44
2022/05/16 02:35:40;;;;;;;5.70;3.30;;;17.60;54.90;;;;;;5096194;28;20427;-43
2022/05/16 02:38:07;;;;;;;6.90;3.00;;;17.50;55.00;;;;;;5096163;28;20712;-44
2022/05/16 02:40:34;;;;;;;5.37;3.47;;;17.50;55.20;;;;;;5095780;28;20470;-44
2022/05/16 02:43:00;;;;;;;3.90;2.97;;;17.50;55.40;;;;;;5096431;28;20419;-47
2022/05/16 02:45:51;;;;;;;3.43;2.87;;;17.50;55.50;;;;;;5095792;28;20431;-43
2022/05/16 02:48:16;;;;;;;4.53;3.33;;;17.50;55.70;;;;;;5096862;28;20194;-44
2022/05/16 02:50:42;;;;;;;3.40;3.10;;;17.50;55.60;;;;;;5096664;28;20419;-44
2022/05/16 02:53:08;;;;;;;3.47;3.17;;;17.60;55.70;;;;;;5095680;28;20246;-44
2022/05/16 02:55:33;;;;;;;3.03;2.73;;;17.60;55.60;;;;;;5078225;28;20451;-44
2022/05/16 02:57:59;;;;;;;3.80;3.40;;;17.70;55.90;;;;;;5078489;28;20219;-44
2022/05/16 03:00:25;;;;;;;3.20;2.90;;;17.80;55.60;;;;;;5096832;28;20202;-44
2022/05/16 03:02:51;;;;;;;3.50;2.73;;;17.80;55.70;;;;;;5097747;28;20416;-44
2022/05/16 03:05:17;;;;;;;3.63;2.80;;;17.80;56.10;;;;;;5096402;28;20415;-44
2022/05/16 03:07:43;;;;;;;3.93;3.13;;;17.90;56.20;;;;;;5095249;28;20184;-44
2022/05/16 03:10:11;;;;;;;3.10;2.80;;;17.90;56.40;;;;;;5094569;28;20201;-44
2022/05/16 03:12:37;;;;;;;4.00;2.70;;;18.00;56.30;;;;;;5078053;28;20417;-43
2022/05/16 03:15:03;;;;;;;3.97;3.20;;;18.00;56.40;;;;;;5095855;28;20430;-44
2022/05/16 03:17:29;;;;;;;4.47;3.33;;;18.10;56.50;;;;;;5100371;28;20426;-44
2022/05/16 03:19:55;;;;;;;3.37;3.07;;;18.10;56.40;;;;;;5100158;28;20465;-44
2022/05/16 03:22:20;;;;;;;4.17;3.40;;;18.20;56.30;;;;;;5101057;28;20205;-44
2022/05/16 03:24:46;;;;;;;3.13;2.83;;;18.20;56.30;;;;;;5101594;28;20167;-44
2022/05/16 03:27:12;;;;;;;4.40;3.77;;;18.30;56.70;;;;;;5101541;28;20574;-44
2022/05/16 03:29:38;;;;;;;3.20;2.67;;;18.30;56.60;;;;;;5100129;28;20572;-44
2022/05/16 03:32:04;;;;;;;2.67;2.47;;;18.30;56.80;;;;;;5101217;28;20259;-44
2022/05/16 03:34:30;;;;;;;3.77;3.30;;;18.30;57.00;;;;;;5083612;28;20777;-44
2022/05/16 03:36:55;;;;;;;3.80;3.50;;;18.30;57.20;;;;;;5100474;28;20420;-43
2022/05/16 03:42:06;;;;;;;2.87;2.67;;;18.30;58.00;;;;;;5098835;28;20520;-44
2022/05/16 03:44:32;;;;;;;5.27;3.13;;;18.30;58.30;;;;;;5098520;28;20423;-44
2022/05/16 03:46:58;;;;;;;3.60;3.30;;;18.30;58.40;;;;;;5098759;28;20173;-44
2022/05/16 03:49:24;;;;;;;4.30;3.17;;;18.30;58.40;;;;;;5098868;28;20435;-44
2022/05/16 03:51:50;;;;;;;4.10;2.83;;;18.30;58.70;;;;;;5099200;28;20202;-44
2022/05/16 03:54:17;;;;;;;3.10;2.90;;;18.30;59.00;;;;;;5099041;28;20848;-44
2022/05/16 03:56:43;;;;;;;3.97;3.40;;;18.30;59.70;;;;;;5099657;28;20180;-44
2022/05/16 03:59:11;;;;;;;3.73;3.40;;;18.30;60.40;;;;;;5100111;28;20538;-44
2022/05/16 04:01:36;;;;;;;4.80;3.30;;;18.30;61.20;;;;;;5100224;28;20413;-43
2022/05/16 04:04:02;;;;;;;3.57;3.27;;;18.30;62.40;;;;;;5100043;28;20420;-44
2022/05/16 04:06:28;;;;;;;5.57;3.50;;;18.30;63.20;;;;;;5065331;28;20471;-44
2022/05/16 04:08:54;;;;;;;4.57;3.40;;;18.30;64.50;;;;;;5099982;28;20424;-43
2022/05/16 04:11:21;;;;;;;3.80;3.50;;;18.30;66.00;;;;;;5099484;28;20174;-44
2022/05/16 04:13:47;;;;;;;4.83;3.47;;;18.30;67.90;;;;;;5098211;28;20424;-44
2022/05/16 04:16:13;;;;;;;4.83;3.60;;;18.30;66.90;;;;;;5099168;28;20453;-44
2022/05/16 04:18:40;;;;;;;3.27;2.97;;;18.40;66.70;;;;;;5099036;28;20419;-44
2022/05/16 04:21:05;;;;;;;4.13;3.83;;;18.40;67.70;;;;;;5098744;28;20448;-44
2022/05/16 04:23:32;;;;;;;4.00;3.70;;;18.40;68.40;;;;;;5098643;28;20482;-44
2022/05/16 04:25:58;;;;;;;7.83;4.10;;;18.50;69.20;;;;;;5098265;28;20205;-44
2022/05/16 04:28:23;;;;;;;4.17;3.87;;;18.50;69.90;;;;;;5097114;28;20462;-44
2022/05/16 04:30:52;;;;;;;4.23;3.83;;;18.50;70.40;;;;;;5097909;28;20173;-44
2022/05/16 04:33:19;;;;;;;4.30;4.00;;;18.50;71.00;;;;;;5098406;28;20298;-44
2022/05/16 04:35:45;;;;;;;4.80;4.40;;;18.60;71.20;;;;;;5097426;28;20425;-44
2022/05/16 04:38:10;;;;;;;5.67;4.70;;;18.70;72.80;;;;;;5096967;28;20426;-44
2022/05/16 04:42:40;;;;;;;3.73;3.37;;;18.70;73.40;;;;;;5096029;28;20299;-44
2022/05/16 04:43:22;;;;;;;4.30;3.90;;;18.80;74.00;;;;;;5097124;28;20606;-44
2022/05/16 04:45:52;;;;;;;4.33;4.03;;;18.80;74.00;;;;;;5096147;28;20428;-55
2022/05/16 04:48:18;;;;;;;5.73;3.87;;;18.90;73.60;;;;;;5077431;28;20193;-44
2022/05/16 04:50:43;;;;;;;5.40;4.90;;;19.00;73.50;;;;;;5094558;28;20867;-44
2022/05/16 04:53:09;;;;;;;4.33;3.80;;;19.00;73.10;;;;;;5095347;28;20447;-44
2022/05/16 04:55:35;;;;;;;4.67;4.27;;;19.10;73.30;;;;;;5097174;28;20189;-44
2022/05/16 04:58:01;;;;;;;4.27;3.97;;;19.10;73.40;;;;;;5097490;28;20173;-44
2022/05/16 05:00:27;;;;;;;4.00;3.60;;;19.20;73.50;;;;;;5097191;28;20293;-45
2022/05/16 05:02:53;;;;;;;4.60;4.20;;;19.20;73.80;;;;;;5096848;28;20266;-44
2022/05/16 05:05:19;;;;;;;4.37;3.97;;;19.30;74.00;;;;;;5096741;28;20904;-44
2022/05/16 05:07:55;;;;;;;4.43;4.10;;;19.40;74.30;;;;;;5077815;28;20207;-44
2022/05/16 05:16:14;;;;;;;4.40;4.10;;;19.50;75.30;;;;;;5094252;28;20847;-44
2022/05/16 05:18:41;;;;;;;4.53;4.13;;;19.60;76.30;;;;;;5076446;28;20805;-44
2022/05/16 05:21:07;;;;;;;4.73;4.37;;;19.60;76.50;;;;;;5093049;28;20710;-44
2022/05/16 05:23:34;;;;;;;4.70;3.83;;;19.60;75.90;;;;;;5091622;28;20431;-44
2022/05/16 05:26:00;;;;;;;4.47;4.07;;;19.70;75.30;;;;;;5094042;28;20446;-44
2022/05/16 05:28:26;;;;;;;4.40;4.00;;;19.70;74.40;;;;;;5093945;28;20426;-45
2022/05/16 05:30:52;;;;;;;6.90;4.70;;;19.70;74.90;;;;;;5092097;28;20758;-44
2022/05/16 05:33:17;;;;;;;5.63;5.10;;;19.70;74.30;;;;;;5088127;28;20666;-44
2022/05/16 05:35:43;;;;;;;4.77;4.37;;;19.70;74.60;;;;;;5090847;28;20535;-44
2022/05/16 05:38:09;;;;;;;5.63;5.13;;;19.70;74.60;;;;;;5088640;28;20640;-44
2022/05/16 05:40:39;;;;;;;6.90;4.73;;;19.70;74.80;;;;;;5088050;28;20303;-44
2022/05/16 05:43:06;;;;;;;4.70;4.30;;;19.80;74.20;;;;;;5088904;28;20518;-44
2022/05/16 05:45:32;;;;;;;6.00;4.37;;;19.80;74.40;;;;;;5089732;28;20435;-44
2022/05/16 05:47:58;;;;;;;4.90;4.40;;;19.90;73.90;;;;;;5091226;28;20426;-44
2022/05/16 05:50:30;;;;;;;5.90;4.70;;;19.90;74.00;;;;;;5089324;28;20686;-44
2022/05/16 05:52:57;;;;;;;5.40;5.00;;;19.90;73.80;;;;;;5088805;28;20283;-44
2022/05/16 05:55:23;;;;;;;5.00;4.50;;;20.10;73.70;;;;;;5090924;28;20424;-45
2022/05/16 05:57:49;;;;;;;4.90;4.40;;;20.20;73.00;;;;;;5091221;28;20726;-44
2022/05/16 06:00:15;;;;;;;5.80;4.83;;;20.20;72.90;;;;;;5093305;28;20467;-44
2022/05/16 06:02:41;;;;;;;6.10;4.73;;;20.30;72.80;;;;;;5093416;28;20465;-44
2022/05/16 06:05:11;;;;;;;5.00;4.50;;;20.50;72.40;;;;;;5094881;28;20479;-44
2022/05/16 06:07:37;;;;;;;4.63;4.13;;;20.60;71.80;;;;;;5096548;28;20416;-44
2022/05/16 06:10:04;;;;;;;5.37;4.30;;;20.80;71.60;;;;;;5095241;28;20426;-44
2022/05/16 06:12:36;;;;;;;5.10;4.60;;;20.90;71.30;;;;;;5094329;28;20434;-45
2022/05/16 06:15:03;;;;;;;6.40;4.50;;;21.10;71.20;;;;;;5094991;28;20426;-45
2022/05/16 06:17:29;;;;;;;4.27;3.97;;;21.20;71.00;;;;;;5095388;28;20432;-45
2022/05/16 06:19:57;;;;;;;4.90;4.50;;;21.30;70.20;;;;;;5095156;28;20468;-45
2022/05/16 06:22:23;;;;;;;4.10;3.80;;;21.50;69.40;;;;;;5076028;28;20196;-45
2022/05/16 06:27:33;;;;;;;5.13;4.63;;;21.70;69.40;;;;;;5095441;28;20479;-45
2022/05/16 06:29:59;;;;;;;4.80;4.40;;;21.90;69.90;;;;;;5094286;28;20821;-44
2022/05/16 06:32:25;;;;;;;4.87;4.43;;;22.00;70.10;;;;;;5093511;28;20305;-44
2022/05/16 06:34:56;;;;;;;5.10;4.60;;;22.10;69.20;;;;;;5093770;28;20788;-45
2022/05/16 06:37:22;;;;;;;4.43;4.03;;;22.20;68.90;;;;;;5093910;28;21013;-45
2022/05/16 06:39:53;;;;;;;4.63;4.23;;;22.20;69.50;;;;;;5093790;28;20472;-45
2022/05/16 06:42:19;;;;;;;4.60;4.20;;;22.10;68.80;;;;;;5075635;28;20251;-45
2022/05/16 06:44:45;;;;;;;5.33;4.60;;;22.20;69.50;;;;;;5092851;28;20858;-45
2022/05/16 06:47:10;;;;;;;4.50;4.10;;;22.40;69.90;;;;;;5092710;28;20427;-45
2022/05/16 06:49:36;;;;;;;5.13;4.63;;;22.50;68.20;;;;;;5093568;28;20569;-44
2022/05/16 06:52:03;;;;;;;4.93;4.00;;;22.70;68.10;;;;;;5093626;28;20182;-44
2022/05/16 06:54:28;;;;;;;6.40;4.20;;;22.80;67.30;;;;;;5094496;28;20182;-45
2022/05/16 06:56:54;;;;;;;4.70;4.30;;;22.80;67.00;;;;;;5094048;28;20454;-45
2022/05/16 06:59:20;;;;;;;5.53;4.70;;;22.90;66.40;;;;;;5093081;28;20513;-45
2022/05/16 07:01:46;;;;;;;4.53;4.13;;;22.80;66.10;;;;;;5092953;28;20180;-44
2022/05/16 07:04:11;;;;;;;4.10;3.80;;;23.00;66.40;;;;;;5092903;28;20389;-46
2022/05/16 07:06:37;;;;;;;4.70;4.30;;;23.10;66.00;;;;;;5092864;28;20500;-45
2022/05/16 07:09:03;;;;;;;5.53;4.20;;;23.20;65.80;;;;;;5093253;28;20186;-45
2022/05/16 07:11:30;;;;;;;4.80;4.40;;;23.60;65.70;;;;;;5094048;28;20202;-46
2022/05/16 07:13:55;;;;;;;5.03;4.63;;;23.90;63.90;;;;;;5095374;28;20430;-45
2022/05/16 07:16:21;;;;;;;6.30;5.07;;;24.10;64.00;;;;;;5095385;28;20416;-43
2022/05/16 07:18:47;;;;;;;7.37;5.60;;;24.20;63.40;;;;;;5092982;28;20433;-47
2022/05/16 07:21:13;;;;;;;7.30;5.10;;;24.20;62.50;;;;;;5093122;28;20186;-45
2022/05/16 07:23:38;;;;;;;6.03;5.53;;;24.30;62.60;;;;;;5093345;28;20223;-44
2022/05/16 07:28:48;;;;;;;5.73;5.23;;;24.50;62.50;;;;;;5094975;28;20189;-44
2022/05/16 07:31:14;;;;;;;6.20;5.60;;;24.50;61.30;;;;;;5093014;28;20421;-42
2022/05/16 07:33:39;;;;;;;5.83;5.30;;;24.40;62.00;;;;;;5093702;28;20280;-46
2022/05/16 07:36:05;;;;;;;5.23;4.70;;;24.40;61.90;;;;;;5094629;28;20640;-45
2022/05/16 07:38:31;;;;;;;5.33;4.90;;;24.40;62.40;;;;;;5091448;28;20213;-43
2022/05/16 07:40:57;;;;;;;5.93;5.53;;;24.60;62.30;;;;;;5088692;28;20292;-45
2022/05/16 07:43:24;;;;;;;5.90;5.30;;;24.70;62.60;;;;;;5093618;28;20467;-43
2022/05/16 07:45:50;;;;;;;7.03;5.90;;;24.70;62.10;;;;;;5093172;28;20904;-46
2022/05/16 07:48:16;;;;;;;5.63;5.10;;;24.60;61.90;;;;;;5091789;28;20421;-47
2022/05/16 07:50:43;;;;;;;6.87;6.20;;;24.40;62.10;;;;;;5092425;28;20319;-48
2022/05/16 07:53:11;;;;;;;7.60;5.50;;;24.20;63.20;;;;;;5075463;28;20443;-46
2022/05/16 07:55:39;;;;;;;6.60;5.60;;;23.90;63.60;;;;;;5093135;28;20433;-42
2022/05/16 07:58:12;;;;;;;8.10;5.60;;;23.80;64.70;;;;;;5074839;28;20422;-48
2022/05/16 08:00:38;;;;;;;6.43;5.83;;;23.80;65.30;;;;;;5091172;28;21003;-45
2022/05/16 08:03:04;;;;;;;5.67;5.17;;;23.60;65.20;;;;;;5078035;28;20517;-45
2022/05/16 08:05:30;;;;;;;6.40;5.80;;;23.60;65.20;;;;;;5096613;28;20456;-45
2022/05/16 08:10:41;;;;;;;5.90;5.33;;;23.30;66.80;;;;;;5095222;28;20479;-48
2022/05/16 08:13:09;;;;;;;7.00;6.10;;;23.40;67.10;;;;;;5096512;28;20485;-44
2022/05/16 08:15:37;;;;;;;9.80;6.50;;;23.50;68.00;;;;;;5097488;28;20525;-47
2022/05/16 08:18:05;;;;;;;6.33;5.60;;;23.70;67.60;;;;;;5097182;28;20417;-45
2022/05/16 08:20:31;;;;;;;7.97;6.00;;;24.00;67.30;;;;;;5097900;28;20484;-46
2022/05/16 08:22:57;;;;;;;6.23;5.73;;;24.30;66.70;;;;;;5079415;28;20529;-44
2022/05/16 08:25:23;;;;;;;6.07;5.57;;;24.60;66.40;;;;;;5096576;28;20579;-44
2022/05/16 08:27:50;;;;;;;6.50;5.90;;;24.90;65.70;;;;;;5079107;28;20498;-45
2022/05/16 08:30:17;;;;;;;7.10;6.50;;;25.10;64.60;;;;;;5097628;28;20426;-48
2022/05/16 08:32:43;;;;;;;6.63;6.03;;;24.90;64.10;;;;;;5095878;28;20457;-46
2022/05/16 08:35:11;;;;;;;7.10;5.77;;;25.10;63.70;;;;;;5095363;28;20806;-46
2022/05/16 08:40:23;;;;;;;7.30;5.67;;;25.80;62.40;;;;;;5096006;28;20497;-46
2022/05/16 08:42:55;;;;;;;6.20;5.70;;;26.00;61.10;;;;;;5096824;28;20418;-44
2022/05/16 08:45:38;;;;;;;6.93;5.50;;;26.60;60.00;;;;;;5081208;28;20522;-43
2022/05/16 08:48:10;;;;;;;7.07;6.37;;;27.10;58.50;;;;;;5097250;28;20686;-45
2022/05/16 08:51:04;;;;;;;7.70;6.40;;;27.50;58.00;;;;;;5095621;28;20488;-45
2022/05/16 08:53:54;;;;;;;6.80;6.30;;;27.60;56.90;;;;;;5092117;28;20447;-47
2022/05/16 08:56:31;;;;;;;6.77;5.63;;;27.80;54.70;;;;;;5095025;28;20425;-46
2022/05/16 08:59:09;;;;;;;9.73;6.87;;;27.10;55.20;;;;;;5078490;28;20433;-45
2022/05/16 09:01:54;;;;;;;7.90;5.67;;;26.70;54.90;;;;;;5078922;28;20579;-46
2022/05/16 09:04:27;;;;;;;6.13;5.53;;;26.40;55.30;;;;;;5079703;28;20422;-47
2022/05/16 09:07:05;;;;;;;6.73;5.50;;;26.00;56.30;;;;;;5080068;28;20462;-47
2022/05/16 09:10:09;;;;;;;7.60;6.43;;;25.90;56.90;;;;;;5079075;28;20464;-45
2022/05/16 09:13:03;;;;;;;7.80;6.67;;;26.00;57.00;;;;;;5066550;28;20556;-46
2022/05/16 09:15:31;;;;;;;6.83;6.13;;;26.40;56.80;;;;;;5098010;28;20417;-47
2022/05/16 09:18:06;;;;;;;7.47;6.70;;;26.80;55.90;;;;;;5098304;28;20419;-47
2022/05/16 09:20:53;;;;;;;9.70;5.77;;;27.00;55.70;;;;;;5097424;28;20461;-48
2022/05/16 09:23:33;;;;;;;7.60;6.30;;;26.60;54.40;;;;;;5096321;28;20438;-47
2022/05/16 09:26:17;;;;;;;10.17;7.07;;;26.40;54.60;;;;;;5096344;28;20421;-48
2022/05/16 09:28:49;;;;;;;8.87;6.20;;;26.10;54.90;;;;;;5079229;28;20516;-46
2022/05/16 09:31:28;;;;;;;6.53;5.80;;;25.80;54.90;;;;;;5079715;28;20464;-44
2022/05/16 09:33:57;;;;;;;10.50;6.90;;;25.40;55.30;;;;;;5098005;28;20513;-46
2022/05/16 09:36:35;;;;;;;6.60;6.00;;;25.00;56.50;;;;;;5095774;28;20829;-47
2022/05/16 09:39:01;;;;;;;9.27;5.83;;;24.70;57.20;;;;;;5096874;28;20418;-45
2022/05/16 09:41:36;;;;;;;12.13;6.00;;;24.20;57.00;;;;;;5097594;28;20425;-49
2022/05/16 09:44:14;;;;;;;7.67;6.43;;;23.80;57.60;;;;;;5097440;28;20917;-50
2022/05/16 09:46:43;;;;;;;7.57;6.03;;;24.20;57.80;;;;;;5096603;28;20455;-46
2022/05/16 09:49:19;;;;;;;9.37;5.97;;;24.10;57.80;;;;;;5078253;28;20616;-50
2022/05/16 09:51:49;;;;;;;6.17;5.23;;;24.60;57.70;;;;;;5096789;28;20532;-47
2022/05/16 09:54:22;;;;;;;7.03;6.03;;;24.90;57.30;;;;;;5096856;28;20424;-45
2022/05/16 09:57:15;;;;;;;7.47;5.67;;;25.50;56.70;;;;;;5096301;28;20433;-46
2022/05/16 09:59:50;;;;;;;12.50;7.27;;;25.40;55.40;;;;;;5096158;28;20657;-44
2022/05/16 10:02:22;;;;;;;7.70;6.33;;;25.70;55.30;;;;;;5095330;28;20806;-46
2022/05/16 10:04:52;;;;;;;10.27;5.90;;;25.90;55.00;;;;;;5094251;28;20426;-47
2022/05/16 10:07:32;;;;;;;10.07;6.70;;;26.00;55.40;;;;;;5095481;28;20516;-45
2022/05/16 10:09:58;;;;;;;7.20;6.20;;;25.80;55.20;;;;;;5078771;28;20438;-47
2022/05/16 10:12:27;;;;;;;9.00;7.00;;;25.40;55.40;;;;;;5077907;28;20430;-46
2022/05/16 10:14:54;;;;;;;9.87;5.90;;;25.40;56.00;;;;;;5096772;28;20430;-47
2022/05/16 10:17:34;;;;;;;10.30;6.30;;;25.10;56.80;;;;;;5079012;28;20430;-46
2022/05/16 10:20:06;;;;;;;9.13;6.93;;;25.20;56.50;;;;;;5096016;28;20469;-46
2022/05/16 10:22:33;;;;;;;7.10;6.00;;;25.20;56.70;;;;;;5092140;28;20838;-45
2022/05/16 10:24:59;;;;;;;10.30;6.40;;;25.50;56.30;;;;;;5091667;28;20388;-46
2022/05/16 10:27:36;;;;;;;7.90;5.87;;;25.40;55.90;;;;;;5091014;28;20416;-46
2022/05/16 10:30:15;;;;;;;6.90;5.53;;;24.90;56.70;;;;;;5092442;28;20440;-47
2022/05/16 10:36:07;;;;;;;5.70;4.80;;;25.40;57.10;;;;;;5071876;28;20477;-48
2022/05/16 10:39:11;;;;;;;4.93;4.00;;;25.60;56.90;;;;;;5071599;28;20704;-45
2022/05/16 10:41:53;;;;;;;7.23;4.13;;;25.40;55.20;;;;;;5076087;28;20438;-45
2022/05/16 10:44:52;;;;;;;4.20;3.80;;;25.30;56.00;;;;;;5075493;28;20702;-46
2022/05/16 10:47:36;;;;;;;7.13;3.80;;;25.10;55.70;;;;;;5075648;28;20422;-47
2022/05/16 10:50:20;;;;;;;6.90;3.80;;;24.90;55.80;;;;;;5073827;28;20469;-47
2022/05/16 10:53:10;;;;;;;4.60;3.43;;;24.50;56.60;;;;;;5073794;28;20429;-44
2022/05/16 10:56:01;;;;;;;5.53;3.93;;;24.50;57.30;;;;;;5073511;28;20406;-46
2022/05/16 10:59:02;;;;;;;5.90;4.10;;;24.30;57.70;;;;;;5072290;28;20870;-44
2022/05/16 11:01:40;;;;;;;4.43;4.03;;;24.20;58.30;;;;;;5012392;28;20530;-45
2022/05/16 11:04:28;;;;;;;5.27;4.43;;;24.00;58.90;;;;;;5066819;28;20563;-45
2022/05/16 11:07:05;;;;;;;5.87;5.27;;;23.80;59.30;;;;;;5072963;28;20423;-51
2022/05/16 11:09:36;;;;;;;8.57;4.00;;;23.50;60.10;;;;;;5074067;28;20443;-43
2022/05/16 11:12:12;;;;;;;3.93;3.57;;;23.00;59.70;;;;;;5074432;28;20482;-47
2022/05/16 11:15:14;;;;;;;5.73;3.57;;;22.30;60.00;;;;;;5072802;28;20585;-43
2022/05/16 11:17:59;;;;;;;4.90;2.87;;;21.90;60.70;;;;;;5072560;28;20408;-46
2022/05/16 11:20:27;;;;;;;3.67;2.80;;;21.80;61.30;;;;;;5073433;28;20459;-43
2022/05/16 11:23:04;;;;;;;4.60;2.60;;;21.50;60.20;;;;;;5071569;28;20494;-48
2022/05/16 11:25:48;;;;;;;3.37;2.07;;;21.20;59.60;;;;;;5072664;28;20833;-45
2022/05/16 11:29:16;;;;;;;5.40;2.50;;;21.00;60.30;;;;;;5072778;28;20463;-44
2022/05/16 11:31:28;;;;;;;7.63;2.80;;;21.00;61.30;;;;;;5072622;28;20456;-45
2022/05/16 11:33:55;;;;;;;4.90;3.03;;;20.90;62.40;;;;;;5071351;28;20528;-47
2022/05/16 11:36:37;;;;;;;4.00;2.50;;;20.70;63.30;;;;;;5071958;28;20523;-45
2022/05/16 11:39:18;;;;;;;4.37;2.90;;;20.50;63.40;;;;;;5075776;28;20402;-44
2022/05/16 11:42:03;;;;;;;5.17;2.87;;;20.50;64.30;;;;;;5058234;28;20530;-45
2022/05/16 11:44:50;;;;;;;5.60;2.93;;;20.30;66.40;;;;;;5057660;28;20401;-46
2022/05/16 11:47:29;;;;;;;4.60;3.03;;;19.80;74.60;;;;;;5057270;28;20418;-45
2022/05/16 11:50:17;;;;;;;4.30;2.43;;;19.60;81.50;;;;;;5057046;28;20490;-44
2022/05/16 11:53:00;;;;;;;3.30;2.33;;;19.30;84.70;;;;;;5066582;28;20703;-45
2022/05/16 12:01:39;;;;;;;7.40;3.27;;;18.80;92.30;;;;;;5074050;28;20876;-46
2022/05/16 12:04:15;;;;;;;5.17;2.37;;;18.60;92.70;;;;;;5075893;28;20417;-45
2022/05/16 12:06:58;;;;;;;5.50;2.83;;;18.70;93.10;;;;;;5077132;28;20416;-43
2022/05/16 12:09:55;;;;;;;6.17;2.53;;;18.80;93.60;;;;;;5075561;28;20550;-43
2022/05/16 12:12:34;;;;;;;6.33;3.07;;;18.80;93.60;;;;;;5075388;28;20523;-44
2022/05/16 12:15:24;;;;;;;8.97;3.17;;;18.90;94.60;;;;;;5079320;28;20532;-45
2022/05/16 12:18:07;;;;;;;4.17;2.50;;;18.90;95.50;;;;;;5077843;28;20476;-44
2022/05/16 12:20:45;;;;;;;3.40;2.60;;;19.00;95.60;;;;;;5068150;28;20490;-49
2022/05/16 12:23:13;;;;;;;4.43;2.67;;;18.90;95.40;;;;;;5073169;28;20755;-44
2022/05/16 12:25:41;;;;;;;4.47;2.90;;;18.70;95.80;;;;;;5076028;28;20432;-43
2022/05/16 12:28:13;;;;;;;3.30;2.30;;;18.80;96.10;;;;;;5076062;28;20511;-45
2022/05/16 12:30:43;;;;;;;6.87;3.90;;;19.00;96.10;;;;;;5057312;28;20421;-45
2022/05/16 12:33:40;;;;;;;4.53;3.40;;;19.10;97.00;;;;;;5089733;28;20547;-47
2022/05/16 12:36:15;;;;;;;4.53;3.07;;;19.00;97.30;;;;;;5098115;28;20419;-42
2022/05/16 12:38:42;;;;;;;5.10;3.60;;;19.10;97.60;;;;;;5092733;28;20451;-43
2022/05/16 12:41:38;;;;;;;5.23;3.07;;;19.40;97.90;;;;;;5076385;28;20578;-43
2022/05/16 12:44:33;;;;;;;4.23;2.97;;;20.00;97.00;;;;;;5060029;28;20482;-46
2022/05/16 12:47:36;;;;;;;5.60;3.10;;;20.80;96.50;;;;;;5076954;28;20755;-45
2022/05/16 12:50:14;;;;;;;5.73;3.40;;;21.50;94.50;;;;;;5092049;28;20510;-45
2022/05/16 12:52:58;;;;;;;5.67;3.70;;;22.30;93.30;;;;;;5093893;28;20452;-46
2022/05/16 12:55:54;;;;;;;6.60;3.63;;;22.90;91.50;;;;;;5096124;28;20418;-45
2022/05/16 12:58:29;;;;;;;4.90;3.10;;;23.10;89.40;;;;;;5095055;28;20444;-48
2022/05/16 13:01:05;;;;;;;6.27;3.50;;;23.10;88.50;;;;;;5094889;28;20912;-44
2022/05/16 13:03:31;;;;;;;6.17;3.40;;;23.00;88.70;;;;;;5094861;28;20453;-47
2022/05/16 13:06:03;;;;;;;6.70;5.20;;;23.10;89.20;;;;;;5089700;28;20532;-45
2022/05/16 13:08:40;;;;;;;5.23;3.50;;;23.00;90.30;;;;;;5078118;28;20192;-47
2022/05/16 13:11:26;;;;;;;5.43;3.70;;;22.90;88.60;;;;;;5093995;28;20702;-47
2022/05/16 13:14:12;;;;;;;4.53;4.10;;;22.70;90.10;;;;;;5060099;28;20440;-44
2022/05/16 13:16:57;;;;;;;4.60;4.03;;;22.50;90.20;;;;;;5076303;28;20408;-46
2022/05/16 13:19:29;;;;;;;7.70;4.87;;;22.60;91.00;;;;;;5085070;28;20520;-44
2022/05/16 13:22:06;;;;;;;5.20;4.70;;;22.10;91.50;;;;;;5062525;28;20486;-45
2022/05/16 13:24:33;;;;;;;7.73;5.20;;;21.80;92.50;;;;;;5095386;28;20432;-45
2022/05/16 13:29:48;;;;;;;11.27;5.77;;;22.60;91.80;;;;;;5096303;28;20547;-45
2022/05/16 13:32:19;;;;;;;5.30;4.43;;;22.90;91.90;;;;;;5097067;28;20747;-43
2022/05/16 13:34:53;;;;;;;6.00;5.40;;;23.10;92.00;;;;;;5095919;28;20428;-44
2022/05/16 13:37:21;;;;;;;6.00;5.37;;;23.50;91.40;;;;;;5094827;28;20446;-47
2022/05/16 13:39:50;;;;;;;9.20;4.80;;;23.60;90.90;;;;;;5095917;28;20520;-47
2022/05/16 13:42:22;;;;;;;8.60;5.20;;;24.10;90.50;;;;;;5077700;28;20519;-45
2022/05/16 13:44:49;;;;;;;6.30;4.97;;;24.40;88.90;;;;;;5077450;28;20537;-43
2022/05/16 13:47:20;;;;;;;5.03;4.23;;;25.00;86.50;;;;;;5076482;28;20428;-45